Station: Trepell

  Atmospheric Gas Attenuation - ITU Rec 676-11   --------------- db/100km ---------------
Date Time Temp RH % AH g/m3 Dew Point Wind Direction Speed kph Gust kph Barometer mB Rainfall Since 9am 24GHz 47GHz 76GHz 122GHz 134GHz 241GHz
27 00:50 26.9 20 5.12 2.1 11 11 1005.6 0 11.8 17.7 22.7 58.9 46.9 159.2
27 00:40 26.9 20 5.12 2.1 11 11 1005.6 0 11.8 17.7 22.7 58.9 46.9 159.2
27 00:30 27.4 20 5.26 2.5 11 13 1005.5 0 12.1 17.8 22.9 59.6 47.9 163.0
27 00:20 27.7 20 5.35 2.7 11 11 1005.8 0 12.2 17.9 23.1 60.2 48.7 165.6
27 00:10 27.9 20 5.41 2.9 11 11 1005.9 0 12.4 17.9 23.2 60.5 49.1 167.2
27 00:00 27.9 21 5.68 3.6 11 13 1005.9 0 12.9 18.2 24.0 62.6 51.7 176.5
26 23:50 27.5 22 5.82 3.9 11 13 1006.1 0 13.2 18.5 24.6 64.0 53.4 182.2
26 23:40 27.7 22 5.89 4.1 11 13 1006.1 0 13.3 18.5 24.7 64.5 53.9 184.2
26 23:30 28.1 22 6.02 4.4 9 11 1006 0 13.6 18.6 25.0 65.2 55.0 187.8
26 23:20 27.7 23 6.15 4.7 11 11 1006.1 0 13.9 18.8 25.5 66.5 56.5 193.3
26 23:10 27.3 23 6.02 4.4 9 11 1006.1 0 13.6 18.8 25.2 65.8 55.5 189.6
26 23:00 27.8 22 5.92 4.2 9 13 1005.9 0 13.4 18.5 24.8 64.6 54.2 185.0
26 22:50 28.7 20 5.65 3.5 7 9 1006 0 12.8 18.0 23.7 61.8 51.0 173.8
26 22:40 29.4 19 5.58 3.4 11 11 1006 0 12.7 17.8 23.3 60.8 49.9 170.0
26 22:30 29.7 20 5.97 4.4 11 17 1005.8 0 13.4 18.2 24.4 63.6 53.4 182.6
26 22:20 30.7 18 5.67 3.7 13 15 1005.8 0 12.8 17.7 23.2 60.5 50.0 170.4
26 22:10 30.5 17 5.3 2.7 13 13 1005.7 0 12.0 17.3 22.2 57.8 46.6 158.6
26 22:00 29.7 20 5.97 4.4 11 19 1005.5 0 13.4 18.2 24.4 63.5 53.4 182.5
26 21:50 30.3 18 5.55 3.4 11 11 1005.3 0 12.6 17.6 23.0 59.8 49.0 167.2
26 21:40 30.3 19 5.86 4.1 9 9 1005.3 0 13.2 18.0 23.9 62.2 52.0 177.5
26 21:30 30.3 19 5.86 4.1 9 9 1005.1 0 13.2 18.0 23.9 62.2 52.0 177.5
26 21:20 30.9 18 5.73 3.8 9 9 1005.2 0 12.9 17.7 23.3 60.8 50.4 171.9
26 21:10 30.7 19 5.98 4.4 9 11 1005 0 13.4 18.0 24.1 62.8 52.9 180.7
26 21:00 30.8 20 6.33 5.3 11 13 1004.8 0 14.1 18.4 25.1 65.5 56.1 192.2
26 20:50 30 22 6.67 6 11 13 1004.7 0 14.9 19.0 26.3 68.8 60.0 205.8
26 20:40 30.9 22 7 6.7 0 0 1004.5 0 15.5 19.2 27.0 70.7 62.6 215.0
26 20:30 31.5 20 6.58 5.8 0 0 1004.3 0 14.6 18.6 25.6 66.8 58.1 199.0
26 20:20 31.9 19 6.38 5.4 0 0 1004.4 0 14.2 18.3 24.9 65.0 55.9 191.4
26 20:10 31.8 21 7.02 6.8 0 0 1004.3 0 15.5 19.0 26.8 70.1 62.1 213.3
26 20:00 32 21 7.09 7 0 0 1004.1 0 15.7 19.1 26.9 70.4 62.6 215.2
26 19:50 32.7 18 6.31 5.3 0 0 1004 0 14.0 18.0 24.5 63.8 54.7 187.2
26 19:40 32.7 18 6.31 5.3 0 0 1003.8 0 14.0 18.0 24.4 63.8 54.6 187.2
26 19:30 33 18 6.41 5.5 0 0 1003.5 0 14.2 18.1 24.6 64.3 55.4 189.8
26 19:20 33.6 16 5.88 4.3 0 0 1003.5 0 13.1 17.3 23.0 59.9 50.1 171.2
26 19:10 34 15 5.63 3.7 0 0 1003.4 0 12.6 17.0 22.2 57.8 47.6 162.4
26 19:00 34.5 15 5.78 4.1 6 7 1003.2 0 12.9 17.1 22.5 58.5 48.6 166.2
26 18:50 34.9 14 5.51 3.5 0 0 1003.2 0 12.3 16.7 21.6 56.3 46.0 156.9
26 18:40 35 14 5.54 3.5 0 0 1003 0 12.4 16.7 21.7 56.4 46.2 157.7
26 18:30 35.3 14 5.62 3.8 9 11 1002.8 0 12.6 16.7 21.8 56.8 46.7 159.6
26 18:20 35.4 14 5.65 3.8 9 11 1002.8 0 12.6 16.8 21.9 57.0 47.0 160.3
26 18:10 35.7 14 5.74 4.1 9 9 1002.8 0 12.8 16.8 22.0 57.4 47.6 162.6
26 18:00 35.4 15 6.06 4.8 4 7 1002.7 0 13.4 17.2 23.0 59.9 50.6 173.3
26 17:50 35.7 15 6.15 5.1 7 9 1002.7 0 13.6 17.3 23.1 60.4 51.3 175.5
26 17:40 36.2 14 5.89 4.5 7 11 1002.7 0 13.1 16.9 22.3 58.1 48.6 166.3
26 17:30 36.7 14 6.05 4.9 11 17 1002.5 0 13.4 17.0 22.6 59.0 49.8 170.3
26 17:20 36.6 14 6.02 4.8 11 13 1002.5 0 13.3 16.9 22.5 58.8 49.6 169.6
26 17:10 36.2 15 6.31 5.5 2 6 1002.5 0 13.9 17.3 23.4 61.2 52.4 179.5
26 17:00 35.9 15 6.22 5.2 6 11 1002.4 0 13.8 17.3 23.3 60.7 51.7 177.3
26 16:50 36.3 16 6.77 6.5 9 11 1002.5 0 14.9 17.8 24.7 64.5 56.5 194.0
26 16:40 36 15 6.25 5.3 11 13 1002.5 0 13.8 17.3 23.3 60.9 52.0 178.0
26 16:30 36.1 16 6.7 6.3 11 15 1002.3 0 14.7 17.8 24.5 64.1 56.0 192.2
26 16:20 36 17 7.08 7.1 6 11 1002.4 0 15.5 18.2 25.6 67.0 59.5 204.7
26 16:10 36 17 7.08 7.1 9 13 1002.4 0 15.5 18.2 25.6 67.0 59.5 204.7
26 16:00 36.1 18 7.54 8 7 17 1002.4 0 16.4 18.8 26.9 70.4 63.8 219.6
26 15:50 35.6 18 7.35 7.6 9 11 1002.5 0 16.1 18.6 26.5 69.4 62.4 214.6
26 15:40 35.6 18 7.35 7.6 9 11 1002.6 0 16.1 18.6 26.5 69.4 62.4 214.6
26 15:30 36 19 7.92 8.7 6 15 1002.6 0 17.2 19.2 28.0 73.5 67.5 232.6
26 15:20 35.9 19 7.87 8.7 11 13 1002.9 0 17.1 19.2 27.9 73.2 67.1 231.2
26 15:10 35 19 7.52 7.9 11 13 1003 0 16.4 19.0 27.2 71.2 64.4 221.9
26 15:00 35.1 20 7.95 8.8 9 17 1003 0 17.3 19.5 28.4 74.5 68.5 236.1
26 14:50 34.7 20 7.79 8.4 9 11 1003.3 0 17.0 19.4 28.1 73.6 67.3 231.8
26 14:40 34.9 20 7.87 8.6 11 13 1003.4 0 17.1 19.4 28.3 74.1 67.9 234.0
26 14:30 35 20 7.91 8.7 7 13 1003.5 0 17.2 19.4 28.4 74.3 68.2 235.1
26 14:20 34.6 20 7.75 8.4 13 17 1003.7 0 16.9 19.3 28.0 73.4 67.0 230.8
26 14:10 33.6 19 6.98 6.8 7 9 1003.9 0 15.4 18.6 26.1 68.3 60.4 207.5
26 14:00 34.6 20 7.75 8.4 9 17 1004 0 16.9 19.4 28.0 73.4 67.0 230.9
26 13:50 35.1 21 8.35 9.5 7 9 1004.2 0 18.1 20.0 29.6 77.8 72.5 250.1
26 13:40 33.5 19 6.95 6.7 9 9 1004.4 0 15.3 18.6 26.1 68.1 60.2 206.8
26 13:30 33.5 21 7.68 8.2 6 13 1004.4 0 16.8 19.5 28.2 73.9 67.3 231.6
26 13:20 33.7 21 7.76 8.3 9 9 1004.9 0 17.0 19.6 28.4 74.4 67.9 233.9
26 13:10 33.1 21 7.52 7.9 9 11 1005 0 16.5 19.4 27.9 73.0 66.0 227.3
26 13:00 33.2 20 7.2 7.2 11 17 1004.9 0 15.8 19.0 26.9 70.4 62.8 216.1
26 12:50 32.7 21 7.36 7.5 13 13 1005.1 0 16.2 19.3 27.5 72.1 64.8 222.9
26 12:40 32.4 20 6.9 6.6 7 9 1005.3 0 15.3 18.8 26.3 68.7 60.6 207.9
26 12:30 33.1 22 7.88 8.5 7 11 1005.4 0 17.2 19.9 29.0 75.9 69.6 239.8
26 12:20 31.9 21 7.05 6.9 7 9 1005.6 0 15.6 19.1 26.9 70.3 62.4 214.4
26 12:10 31.6 20 6.61 5.9 9 11 1005.8 0 14.7 18.6 25.7 67.1 58.4 200.1
26 12:00 32.6 20 6.97 6.7 9 15 1005.8 0 15.4 18.9 26.4 69.1 61.1 209.9
26 11:50 31.8 20 6.68 6.1 13 15 1006 0 14.8 18.7 25.8 67.5 58.9 202.0
26 11:40 31.1 22 7.08 6.9 7 9 1006.2 0 15.7 19.3 27.3 71.3 63.3 217.5
26 11:30 31.1 21 6.76 6.2 9 19 1006.1 0 15.0 18.9 26.3 68.7 60.2 206.5
26 11:20 30.7 21 6.61 5.9 9 9 1006.4 0 14.7 18.8 26.0 67.9 59.0 202.3
26 11:10 30.4 19 5.89 4.2 9 11 1006.5 0 13.3 18.0 24.0 62.5 52.3 178.5
26 11:00 30.3 20 6.17 4.9 11 17 1006.5 0 13.8 18.4 24.8 64.7 55.0 188.2
26 10:50 30.6 20 6.27 5.1 11 13 1006.8 0 14.0 18.4 25.0 65.3 55.8 191.0
26 10:40 30 20 6.07 4.6 15 19 1007 0 13.6 18.3 24.6 64.2 54.3 185.5
26 10:30 29.7 19 5.67 3.6 9 20 1006.9 0 12.8 17.9 23.5 61.3 50.6 172.6
26 10:20 29.6 18 5.34 2.8 15 17 1007 0 12.2 17.5 22.6 58.8 47.5 161.8
26 10:10 29.6 16 4.75 1.1 15 17 1006.8 0 10.9 16.9 21.0 54.4 42.0 142.3
26 10:00 29.2 15 4.36 -0.1 13 19 1006.8 0 10.2 16.5 20.0 51.7 38.6 130.3
26 09:50 28.4 15 4.17 -0.7 13 15 1006.8 0 9.8 16.4 19.6 50.8 37.2 125.3
26 09:40 28.2 16 4.4 0 17 19 1006.6 0 10.3 16.7 20.3 52.6 39.4 133.1
26 09:30 27.3 16 4.19 -0.7 19 24 1006.5 0 9.9 16.6 19.9 51.6 37.9 127.6
26 09:20 26.9 14 3.58 -2.8 17 19 1006.6 0 8.6 16.0 18.3 47.3 32.4 108.3
26 09:10 27 15 3.86 -1.8 17 19 1006.7 0 9.2 16.3 19.1 49.3 35.0 117.2
26 09:00 25.6 14 3.33 -3.8 17 24 1006.7 0 8.1 15.9 17.9 46.1 30.6 101.8
26 08:50 26.1 15 3.67 -2.5 17 19 1006.5 0 8.8 16.2 18.7 48.4 33.6 112.2
26 08:40 24.8 15 3.41 -3.6 15 17 1006.5 0 8.3 16.1 18.3 47.1 31.7 105.4
26 08:30 24.1 16 3.5 -3.3 13 19 1006.3 0 8.5 16.3 18.7 48.2 32.8 109.2
26 08:20 23.7 16 3.42 -3.6 11 13 1006.4 0 8.4 16.3 18.5 47.8 32.2 107.0

Last Refresh: 27-Feb-2021 01:26:28

Most of the information presented on this site is sourced from the Bureau of Meteorology.  Copyright in all material sourced from the Bureau of Meteorology resides with the Commonwealth of Australia.